sensor_id;sensor_type;location;lat;lon;timestamp;P1;durP1;ratioP1;P2;durP2;ratioP2
44822;SDS011;51097;51.984;5.650;2024-01-11T00:00:34;23.58;;;11.57;;
44822;SDS011;51097;51.984;5.650;2024-01-11T00:03:00;19.85;;;10.35;;
44822;SDS011;51097;51.984;5.650;2024-01-11T00:05:25;16.13;;;9.90;;
44822;SDS011;51097;51.984;5.650;2024-01-11T00:07:51;22.23;;;11.32;;
44822;SDS011;51097;51.984;5.650;2024-01-11T00:10:17;18.38;;;10.60;;
44822;SDS011;51097;51.984;5.650;2024-01-11T00:12:43;22.23;;;10.93;;
44822;SDS011;51097;51.984;5.650;2024-01-11T00:15:09;20.88;;;10.52;;
44822;SDS011;51097;51.984;5.650;2024-01-11T00:17:34;16.38;;;9.52;;
44822;SDS011;51097;51.984;5.650;2024-01-11T00:20:00;22.38;;;11.07;;
44822;SDS011;51097;51.984;5.650;2024-01-11T00:22:26;24.15;;;11.40;;
44822;SDS011;51097;51.984;5.650;2024-01-11T00:24:52;22.88;;;11.27;;
44822;SDS011;51097;51.984;5.650;2024-01-11T00:27:17;16.40;;;10.25;;
44822;SDS011;51097;51.984;5.650;2024-01-11T00:29:43;18.90;;;11.15;;
44822;SDS011;51097;51.984;5.650;2024-01-11T00:32:09;17.92;;;9.82;;
44822;SDS011;51097;51.984;5.650;2024-01-11T00:34:34;20.02;;;11.15;;
44822;SDS011;51097;51.984;5.650;2024-01-11T00:37:01;16.88;;;11.25;;
44822;SDS011;51097;51.984;5.650;2024-01-11T00:39:26;23.00;;;11.63;;
44822;SDS011;51097;51.984;5.650;2024-01-11T00:41:52;18.33;;;9.60;;
44822;SDS011;51097;51.984;5.650;2024-01-11T00:44:18;25.40;;;12.80;;
44822;SDS011;51097;51.984;5.650;2024-01-11T00:46:43;16.63;;;9.75;;
44822;SDS011;51097;51.984;5.650;2024-01-11T00:49:09;19.05;;;9.10;;
44822;SDS011;51097;51.984;5.650;2024-01-11T00:51:35;18.17;;;11.43;;
44822;SDS011;51097;51.984;5.650;2024-01-11T00:54:01;20.85;;;10.77;;
44822;SDS011;51097;51.984;5.650;2024-01-11T00:56:26;20.50;;;10.32;;
44822;SDS011;51097;51.984;5.650;2024-01-11T00:58:52;18.08;;;10.70;;
44822;SDS011;51097;51.984;5.650;2024-01-11T01:01:18;22.45;;;11.85;;
44822;SDS011;51097;51.984;5.650;2024-01-11T01:03:43;22.65;;;11.85;;
44822;SDS011;51097;51.984;5.650;2024-01-11T01:06:09;17.77;;;12.10;;
44822;SDS011;51097;51.984;5.650;2024-01-11T01:08:35;32.88;;;13.82;;
44822;SDS011;51097;51.984;5.650;2024-01-11T01:11:00;17.90;;;11.18;;
44822;SDS011;51097;51.984;5.650;2024-01-11T01:13:26;22.13;;;12.60;;
44822;SDS011;51097;51.984;5.650;2024-01-11T01:15:51;19.45;;;11.82;;
44822;SDS011;51097;51.984;5.650;2024-01-11T01:18:17;22.30;;;14.38;;
44822;SDS011;51097;51.984;5.650;2024-01-11T01:20:42;23.75;;;14.55;;
44822;SDS011;51097;51.984;5.650;2024-01-11T01:23:08;25.23;;;14.50;;
44822;SDS011;51097;51.984;5.650;2024-01-11T01:25:34;23.67;;;14.40;;
44822;SDS011;51097;51.984;5.650;2024-01-11T01:27:59;22.38;;;12.30;;
44822;SDS011;51097;51.984;5.650;2024-01-11T01:30:26;20.77;;;12.13;;
44822;SDS011;51097;51.984;5.650;2024-01-11T01:32:52;24.20;;;10.77;;
44822;SDS011;51097;51.984;5.650;2024-01-11T01:35:17;19.23;;;12.30;;
44822;SDS011;51097;51.984;5.650;2024-01-11T01:37:43;20.17;;;11.85;;
44822;SDS011;51097;51.984;5.650;2024-01-11T01:40:09;21.08;;;10.35;;
44822;SDS011;51097;51.984;5.650;2024-01-11T01:42:35;20.40;;;10.73;;
44822;SDS011;51097;51.984;5.650;2024-01-11T01:45:00;16.33;;;10.13;;
44822;SDS011;51097;51.984;5.650;2024-01-11T01:47:29;17.50;;;9.85;;
44822;SDS011;51097;51.984;5.650;2024-01-11T01:49:54;20.80;;;10.30;;
44822;SDS011;51097;51.984;5.650;2024-01-11T01:52:20;23.17;;;11.30;;
44822;SDS011;51097;51.984;5.650;2024-01-11T01:54:47;17.85;;;9.93;;
44822;SDS011;51097;51.984;5.650;2024-01-11T01:57:14;21.23;;;12.00;;
44822;SDS011;51097;51.984;5.650;2024-01-11T01:59:41;16.52;;;10.15;;
44822;SDS011;51097;51.984;5.650;2024-01-11T02:02:08;20.38;;;9.05;;
44822;SDS011;51097;51.984;5.650;2024-01-11T02:09:41;15.70;;;9.45;;
44822;SDS011;51097;51.984;5.650;2024-01-11T02:12:08;19.45;;;9.38;;
44822;SDS011;51097;51.984;5.650;2024-01-11T02:14:37;18.65;;;10.48;;
44822;SDS011;51097;51.984;5.650;2024-01-11T02:17:02;19.08;;;9.82;;
44822;SDS011;51097;51.984;5.650;2024-01-11T02:19:28;22.98;;;10.50;;
44822;SDS011;51097;51.984;5.650;2024-01-11T02:21:54;17.77;;;10.65;;
44822;SDS011;51097;51.984;5.650;2024-01-11T02:24:20;19.67;;;9.57;;
44822;SDS011;51097;51.984;5.650;2024-01-11T02:27:02;25.13;;;10.45;;
44822;SDS011;51097;51.984;5.650;2024-01-11T02:29:29;15.93;;;9.48;;
44822;SDS011;51097;51.984;5.650;2024-01-11T02:31:56;18.83;;;9.88;;
44822;SDS011;51097;51.984;5.650;2024-01-11T02:34:22;20.70;;;10.18;;
44822;SDS011;51097;51.984;5.650;2024-01-11T02:36:49;21.25;;;10.35;;
44822;SDS011;51097;51.984;5.650;2024-01-11T02:39:16;23.42;;;10.45;;
44822;SDS011;51097;51.984;5.650;2024-01-11T02:41:43;14.57;;;9.77;;
44822;SDS011;51097;51.984;5.650;2024-01-11T02:44:09;17.85;;;9.07;;
44822;SDS011;51097;51.984;5.650;2024-01-11T02:46:35;20.88;;;10.23;;
44822;SDS011;51097;51.984;5.650;2024-01-11T02:49:01;20.55;;;10.65;;
44822;SDS011;51097;51.984;5.650;2024-01-11T02:51:27;18.20;;;10.13;;
44822;SDS011;51097;51.984;5.650;2024-01-11T02:53:52;23.02;;;11.75;;
44822;SDS011;51097;51.984;5.650;2024-01-11T02:56:18;23.13;;;11.00;;
44822;SDS011;51097;51.984;5.650;2024-01-11T02:58:43;16.88;;;9.68;;
44822;SDS011;51097;51.984;5.650;2024-01-11T03:01:09;23.52;;;10.25;;
44822;SDS011;51097;51.984;5.650;2024-01-11T03:03:35;15.73;;;10.98;;
44822;SDS011;51097;51.984;5.650;2024-01-11T03:06:00;18.48;;;10.27;;
44822;SDS011;51097;51.984;5.650;2024-01-11T03:08:26;20.23;;;10.38;;
44822;SDS011;51097;51.984;5.650;2024-01-11T03:10:52;16.58;;;9.57;;
44822;SDS011;51097;51.984;5.650;2024-01-11T03:13:17;18.65;;;10.43;;
44822;SDS011;51097;51.984;5.650;2024-01-11T03:15:43;19.88;;;11.05;;
44822;SDS011;51097;51.984;5.650;2024-01-11T03:18:09;19.13;;;9.32;;
44822;SDS011;51097;51.984;5.650;2024-01-11T03:20:34;17.90;;;10.52;;
44822;SDS011;51097;51.984;5.650;2024-01-11T03:23:00;17.35;;;9.82;;
44822;SDS011;51097;51.984;5.650;2024-01-11T03:25:25;17.77;;;10.38;;
44822;SDS011;51097;51.984;5.650;2024-01-11T03:27:51;16.40;;;8.88;;
44822;SDS011;51097;51.984;5.650;2024-01-11T03:30:17;18.50;;;9.13;;
44822;SDS011;51097;51.984;5.650;2024-01-11T03:32:42;21.20;;;10.80;;
44822;SDS011;51097;51.984;5.650;2024-01-11T03:35:08;18.52;;;9.50;;
44822;SDS011;51097;51.984;5.650;2024-01-11T03:37:34;20.48;;;9.60;;
44822;SDS011;51097;51.984;5.650;2024-01-11T03:40:00;21.02;;;10.07;;
44822;SDS011;51097;51.984;5.650;2024-01-11T03:42:27;19.67;;;10.48;;
44822;SDS011;51097;51.984;5.650;2024-01-11T03:44:53;23.05;;;9.70;;
44822;SDS011;51097;51.984;5.650;2024-01-11T03:47:19;18.90;;;10.15;;
44822;SDS011;51097;51.984;5.650;2024-01-11T03:49:44;19.42;;;10.43;;
44822;SDS011;51097;51.984;5.650;2024-01-11T03:52:10;16.65;;;9.55;;
44822;SDS011;51097;51.984;5.650;2024-01-11T03:54:35;18.60;;;9.25;;
44822;SDS011;51097;51.984;5.650;2024-01-11T03:57:01;21.17;;;9.77;;
44822;SDS011;51097;51.984;5.650;2024-01-11T03:59:27;17.58;;;9.60;;
44822;SDS011;51097;51.984;5.650;2024-01-11T04:01:52;18.27;;;9.43;;
44822;SDS011;51097;51.984;5.650;2024-01-11T04:04:18;20.95;;;10.13;;
44822;SDS011;51097;51.984;5.650;2024-01-11T04:06:44;15.85;;;9.63;;
44822;SDS011;51097;51.984;5.650;2024-01-11T04:09:10;18.05;;;10.18;;
44822;SDS011;51097;51.984;5.650;2024-01-11T04:11:36;17.55;;;10.63;;
44822;SDS011;51097;51.984;5.650;2024-01-11T04:14:02;16.23;;;9.75;;
44822;SDS011;51097;51.984;5.650;2024-01-11T04:16:27;18.98;;;10.93;;
44822;SDS011;51097;51.984;5.650;2024-01-11T04:18:53;18.63;;;11.02;;
44822;SDS011;51097;51.984;5.650;2024-01-11T04:21:25;19.70;;;10.80;;
44822;SDS011;51097;51.984;5.650;2024-01-11T04:23:54;20.08;;;10.90;;
44822;SDS011;51097;51.984;5.650;2024-01-11T04:26:20;21.92;;;11.30;;
44822;SDS011;51097;51.984;5.650;2024-01-11T04:28:46;25.10;;;13.70;;
44822;SDS011;51097;51.984;5.650;2024-01-11T04:31:13;20.75;;;11.23;;
44822;SDS011;51097;51.984;5.650;2024-01-11T04:33:39;19.17;;;9.52;;
44822;SDS011;51097;51.984;5.650;2024-01-11T04:36:06;21.50;;;12.40;;
44822;SDS011;51097;51.984;5.650;2024-01-11T04:38:35;20.92;;;12.45;;
44822;SDS011;51097;51.984;5.650;2024-01-11T04:41:02;18.92;;;10.90;;
44822;SDS011;51097;51.984;5.650;2024-01-11T04:43:32;19.85;;;12.20;;
44822;SDS011;51097;51.984;5.650;2024-01-11T04:45:57;22.25;;;11.10;;
44822;SDS011;51097;51.984;5.650;2024-01-11T04:48:23;17.77;;;9.77;;
44822;SDS011;51097;51.984;5.650;2024-01-11T04:50:48;23.00;;;12.35;;
44822;SDS011;51097;51.984;5.650;2024-01-11T04:53:14;27.27;;;13.75;;
44822;SDS011;51097;51.984;5.650;2024-01-11T04:55:39;25.73;;;11.77;;
44822;SDS011;51097;51.984;5.650;2024-01-11T04:58:05;23.33;;;12.80;;
44822;SDS011;51097;51.984;5.650;2024-01-11T05:00:31;17.67;;;10.75;;
44822;SDS011;51097;51.984;5.650;2024-01-11T05:02:57;25.02;;;12.55;;
44822;SDS011;51097;51.984;5.650;2024-01-11T05:05:22;25.25;;;12.90;;
44822;SDS011;51097;51.984;5.650;2024-01-11T05:07:48;20.60;;;13.07;;
44822;SDS011;51097;51.984;5.650;2024-01-11T05:10:13;29.63;;;14.07;;
44822;SDS011;51097;51.984;5.650;2024-01-11T05:12:39;20.42;;;12.38;;
44822;SDS011;51097;51.984;5.650;2024-01-11T05:15:05;25.38;;;11.82;;
44822;SDS011;51097;51.984;5.650;2024-01-11T05:17:33;25.15;;;13.80;;
44822;SDS011;51097;51.984;5.650;2024-01-11T05:19:58;21.60;;;13.25;;
44822;SDS011;51097;51.984;5.650;2024-01-11T05:22:24;25.17;;;14.00;;
44822;SDS011;51097;51.984;5.650;2024-01-11T05:24:49;25.35;;;14.68;;
44822;SDS011;51097;51.984;5.650;2024-01-11T05:27:15;25.23;;;13.68;;
44822;SDS011;51097;51.984;5.650;2024-01-11T05:29:40;27.20;;;13.57;;
44822;SDS011;51097;51.984;5.650;2024-01-11T05:32:06;25.42;;;13.73;;
44822;SDS011;51097;51.984;5.650;2024-01-11T05:34:31;25.50;;;12.85;;
44822;SDS011;51097;51.984;5.650;2024-01-11T05:36:57;25.70;;;13.27;;
44822;SDS011;51097;51.984;5.650;2024-01-11T05:39:22;29.85;;;13.88;;
44822;SDS011;51097;51.984;5.650;2024-01-11T05:41:48;24.08;;;14.52;;
44822;SDS011;51097;51.984;5.650;2024-01-11T05:44:14;23.45;;;12.93;;
44822;SDS011;51097;51.984;5.650;2024-01-11T05:46:39;25.38;;;14.27;;
44822;SDS011;51097;51.984;5.650;2024-01-11T05:49:05;24.65;;;14.05;;
44822;SDS011;51097;51.984;5.650;2024-01-11T05:51:31;26.63;;;15.85;;
44822;SDS011;51097;51.984;5.650;2024-01-11T05:53:56;24.98;;;13.35;;
44822;SDS011;51097;51.984;5.650;2024-01-11T05:56:22;23.70;;;13.75;;
44822;SDS011;51097;51.984;5.650;2024-01-11T05:58:47;25.70;;;13.90;;
44822;SDS011;51097;51.984;5.650;2024-01-11T06:01:13;25.08;;;13.60;;
44822;SDS011;51097;51.984;5.650;2024-01-11T06:03:39;26.95;;;13.50;;
44822;SDS011;51097;51.984;5.650;2024-01-11T06:06:05;23.48;;;12.77;;
44822;SDS011;51097;51.984;5.650;2024-01-11T06:08:31;24.30;;;14.25;;
44822;SDS011;51097;51.984;5.650;2024-01-11T06:10:57;24.98;;;15.15;;
44822;SDS011;51097;51.984;5.650;2024-01-11T06:13:23;28.42;;;14.50;;
44822;SDS011;51097;51.984;5.650;2024-01-11T06:15:48;26.83;;;15.15;;
44822;SDS011;51097;51.984;5.650;2024-01-11T06:18:15;20.95;;;12.45;;
44822;SDS011;51097;51.984;5.650;2024-01-11T06:20:40;28.42;;;15.30;;
44822;SDS011;51097;51.984;5.650;2024-01-11T06:23:06;26.27;;;15.02;;
44822;SDS011;51097;51.984;5.650;2024-01-11T06:25:32;29.35;;;14.82;;
44822;SDS011;51097;51.984;5.650;2024-01-11T06:28:00;22.98;;;14.30;;
44822;SDS011;51097;51.984;5.650;2024-01-11T06:30:34;27.38;;;14.05;;
44822;SDS011;51097;51.984;5.650;2024-01-11T06:33:02;30.33;;;15.77;;
44822;SDS011;51097;51.984;5.650;2024-01-11T06:35:30;26.13;;;14.27;;
44822;SDS011;51097;51.984;5.650;2024-01-11T06:38:02;23.02;;;14.05;;
44822;SDS011;51097;51.984;5.650;2024-01-11T06:40:33;31.80;;;16.50;;
44822;SDS011;51097;51.984;5.650;2024-01-11T06:43:01;29.05;;;16.52;;
44822;SDS011;51097;51.984;5.650;2024-01-11T06:45:29;28.35;;;14.70;;
44822;SDS011;51097;51.984;5.650;2024-01-11T06:58:15;25.75;;;15.52;;
44822;SDS011;51097;51.984;5.650;2024-01-11T07:01:21;33.95;;;14.35;;
44822;SDS011;51097;51.984;5.650;2024-01-11T07:04:08;25.55;;;14.10;;
44822;SDS011;51097;51.984;5.650;2024-01-11T07:06:51;31.35;;;16.83;;
44822;SDS011;51097;51.984;5.650;2024-01-11T07:09:17;28.40;;;15.20;;
44822;SDS011;51097;51.984;5.650;2024-01-11T07:11:43;34.28;;;16.88;;
44822;SDS011;51097;51.984;5.650;2024-01-11T07:14:09;27.55;;;15.82;;
44822;SDS011;51097;51.984;5.650;2024-01-11T07:16:35;30.58;;;16.75;;
44822;SDS011;51097;51.984;5.650;2024-01-11T07:19:01;25.30;;;14.40;;
44822;SDS011;51097;51.984;5.650;2024-01-11T07:21:26;29.27;;;15.35;;
44822;SDS011;51097;51.984;5.650;2024-01-11T07:23:56;23.85;;;12.02;;
44822;SDS011;51097;51.984;5.650;2024-01-11T07:26:23;32.20;;;16.25;;
44822;SDS011;51097;51.984;5.650;2024-01-11T07:28:49;30.65;;;17.45;;
44822;SDS011;51097;51.984;5.650;2024-01-11T07:31:14;30.95;;;15.48;;
44822;SDS011;51097;51.984;5.650;2024-01-11T07:33:40;31.98;;;16.58;;
44822;SDS011;51097;51.984;5.650;2024-01-11T07:36:06;23.90;;;14.77;;
44822;SDS011;51097;51.984;5.650;2024-01-11T07:38:32;26.35;;;15.50;;
44822;SDS011;51097;51.984;5.650;2024-01-11T07:40:58;31.58;;;17.95;;
44822;SDS011;51097;51.984;5.650;2024-01-11T07:43:23;26.10;;;16.40;;
44822;SDS011;51097;51.984;5.650;2024-01-11T07:45:49;32.58;;;17.30;;
44822;SDS011;51097;51.984;5.650;2024-01-11T07:48:15;28.60;;;16.20;;
44822;SDS011;51097;51.984;5.650;2024-01-11T07:50:40;36.08;;;19.13;;
44822;SDS011;51097;51.984;5.650;2024-01-11T07:53:06;30.90;;;17.35;;
44822;SDS011;51097;51.984;5.650;2024-01-11T07:55:32;33.28;;;18.58;;
44822;SDS011;51097;51.984;5.650;2024-01-11T07:57:57;40.78;;;18.65;;
44822;SDS011;51097;51.984;5.650;2024-01-11T08:00:23;32.72;;;15.57;;
44822;SDS011;51097;51.984;5.650;2024-01-11T08:02:49;29.67;;;14.63;;
44822;SDS011;51097;51.984;5.650;2024-01-11T08:05:14;32.90;;;17.55;;
44822;SDS011;51097;51.984;5.650;2024-01-11T08:07:40;36.65;;;18.20;;
44822;SDS011;51097;51.984;5.650;2024-01-11T08:10:07;33.13;;;17.52;;
44822;SDS011;51097;51.984;5.650;2024-01-11T08:12:34;27.98;;;16.45;;
44822;SDS011;51097;51.984;5.650;2024-01-11T08:15:00;32.78;;;17.50;;
44822;SDS011;51097;51.984;5.650;2024-01-11T08:17:25;39.38;;;17.98;;
44822;SDS011;51097;51.984;5.650;2024-01-11T08:19:51;36.17;;;18.27;;
44822;SDS011;51097;51.984;5.650;2024-01-11T08:22:17;32.90;;;17.50;;
44822;SDS011;51097;51.984;5.650;2024-01-11T08:24:43;38.50;;;18.15;;
44822;SDS011;51097;51.984;5.650;2024-01-11T08:27:09;37.13;;;18.52;;
44822;SDS011;51097;51.984;5.650;2024-01-11T08:29:34;32.35;;;17.25;;
44822;SDS011;51097;51.984;5.650;2024-01-11T08:32:00;39.08;;;20.75;;
44822;SDS011;51097;51.984;5.650;2024-01-11T08:34:29;29.23;;;15.90;;
44822;SDS011;51097;51.984;5.650;2024-01-11T08:36:55;33.47;;;18.75;;
44822;SDS011;51097;51.984;5.650;2024-01-11T08:39:21;38.90;;;20.25;;
44822;SDS011;51097;51.984;5.650;2024-01-11T08:41:46;39.15;;;19.67;;
44822;SDS011;51097;51.984;5.650;2024-01-11T08:44:12;40.75;;;20.13;;
44822;SDS011;51097;51.984;5.650;2024-01-11T08:46:38;28.67;;;16.55;;
44822;SDS011;51097;51.984;5.650;2024-01-11T08:49:04;38.42;;;19.38;;
44822;SDS011;51097;51.984;5.650;2024-01-11T08:51:30;38.63;;;20.38;;
44822;SDS011;51097;51.984;5.650;2024-01-11T08:53:57;39.42;;;21.33;;
44822;SDS011;51097;51.984;5.650;2024-01-11T08:56:23;37.83;;;21.98;;
44822;SDS011;51097;51.984;5.650;2024-01-11T08:58:48;37.70;;;21.85;;
44822;SDS011;51097;51.984;5.650;2024-01-11T09:01:14;38.83;;;19.38;;
44822;SDS011;51097;51.984;5.650;2024-01-11T09:03:40;41.70;;;23.05;;
44822;SDS011;51097;51.984;5.650;2024-01-11T09:06:06;37.40;;;20.95;;
44822;SDS011;51097;51.984;5.650;2024-01-11T09:08:31;38.40;;;21.10;;
44822;SDS011;51097;51.984;5.650;2024-01-11T09:10:57;44.35;;;22.55;;
44822;SDS011;51097;51.984;5.650;2024-01-11T09:13:24;44.15;;;23.42;;
44822;SDS011;51097;51.984;5.650;2024-01-11T09:15:51;38.83;;;21.40;;
44822;SDS011;51097;51.984;5.650;2024-01-11T09:18:17;41.00;;;23.35;;
44822;SDS011;51097;51.984;5.650;2024-01-11T09:20:43;50.67;;;25.98;;
44822;SDS011;51097;51.984;5.650;2024-01-11T09:23:08;44.70;;;21.65;;
44822;SDS011;51097;51.984;5.650;2024-01-11T09:25:34;43.78;;;23.52;;
44822;SDS011;51097;51.984;5.650;2024-01-11T09:28:00;40.60;;;22.85;;
44822;SDS011;51097;51.984;5.650;2024-01-11T09:30:25;45.05;;;22.65;;
44822;SDS011;51097;51.984;5.650;2024-01-11T09:32:51;47.72;;;24.15;;
44822;SDS011;51097;51.984;5.650;2024-01-11T09:35:17;46.60;;;23.92;;
44822;SDS011;51097;51.984;5.650;2024-01-11T09:37:43;43.72;;;22.17;;
44822;SDS011;51097;51.984;5.650;2024-01-11T09:40:11;45.15;;;24.30;;
44822;SDS011;51097;51.984;5.650;2024-01-11T09:42:37;44.53;;;22.17;;
44822;SDS011;51097;51.984;5.650;2024-01-11T09:45:04;43.83;;;22.00;;
44822;SDS011;51097;51.984;5.650;2024-01-11T09:47:33;44.05;;;22.55;;
44822;SDS011;51097;51.984;5.650;2024-01-11T09:50:01;40.92;;;21.73;;
44822;SDS011;51097;51.984;5.650;2024-01-11T09:52:28;45.30;;;22.65;;
44822;SDS011;51097;51.984;5.650;2024-01-11T09:54:55;40.50;;;21.25;;
44822;SDS011;51097;51.984;5.650;2024-01-11T09:57:24;40.33;;;21.58;;
44822;SDS011;51097;51.984;5.650;2024-01-11T09:59:56;42.35;;;22.42;;
44822;SDS011;51097;51.984;5.650;2024-01-11T10:02:23;48.30;;;24.58;;
44822;SDS011;51097;51.984;5.650;2024-01-11T10:04:51;38.85;;;20.73;;
44822;SDS011;51097;51.984;5.650;2024-01-11T10:07:18;41.10;;;22.10;;
44822;SDS011;51097;51.984;5.650;2024-01-11T10:09:46;31.15;;;17.63;;
44822;SDS011;51097;51.984;5.650;2024-01-11T10:12:12;44.53;;;23.55;;
44822;SDS011;51097;51.984;5.650;2024-01-11T10:14:38;35.13;;;20.98;;
44822;SDS011;51097;51.984;5.650;2024-01-11T10:17:04;38.03;;;21.50;;
44822;SDS011;51097;51.984;5.650;2024-01-11T10:19:31;36.30;;;21.02;;
44822;SDS011;51097;51.984;5.650;2024-01-11T10:21:57;34.28;;;19.88;;
44822;SDS011;51097;51.984;5.650;2024-01-11T10:24:26;46.03;;;22.30;;
44822;SDS011;51097;51.984;5.650;2024-01-11T10:26:55;41.50;;;21.10;;
44822;SDS011;51097;51.984;5.650;2024-01-11T10:31:48;37.08;;;18.65;;
44822;SDS011;51097;51.984;5.650;2024-01-11T10:34:15;31.13;;;17.50;;
44822;SDS011;51097;51.984;5.650;2024-01-11T10:36:41;34.10;;;18.48;;
44822;SDS011;51097;51.984;5.650;2024-01-11T10:39:07;34.80;;;18.13;;
44822;SDS011;51097;51.984;5.650;2024-01-11T10:41:39;33.53;;;16.55;;
44822;SDS011;51097;51.984;5.650;2024-01-11T10:44:26;26.17;;;14.95;;
44822;SDS011;51097;51.984;5.650;2024-01-11T10:46:55;30.98;;;16.35;;
44822;SDS011;51097;51.984;5.650;2024-01-11T10:49:22;22.35;;;14.45;;
44822;SDS011;51097;51.984;5.650;2024-01-11T10:51:53;28.20;;;15.23;;
44822;SDS011;51097;51.984;5.650;2024-01-11T10:54:27;26.80;;;13.52;;
44822;SDS011;51097;51.984;5.650;2024-01-11T10:56:55;27.83;;;13.00;;
44822;SDS011;51097;51.984;5.650;2024-01-11T10:59:24;22.63;;;12.75;;
44822;SDS011;51097;51.984;5.650;2024-01-11T11:01:54;31.73;;;14.27;;
44822;SDS011;51097;51.984;5.650;2024-01-11T11:04:23;20.83;;;11.65;;
44822;SDS011;51097;51.984;5.650;2024-01-11T11:06:50;24.23;;;11.60;;
44822;SDS011;51097;51.984;5.650;2024-01-11T11:09:19;17.67;;;10.07;;
44822;SDS011;51097;51.984;5.650;2024-01-11T11:11:46;19.75;;;10.60;;
44822;SDS011;51097;51.984;5.650;2024-01-11T11:14:14;27.40;;;11.18;;
44822;SDS011;51097;51.984;5.650;2024-01-11T11:16:40;26.20;;;11.95;;
44822;SDS011;51097;51.984;5.650;2024-01-11T11:19:06;27.20;;;12.27;;
44822;SDS011;51097;51.984;5.650;2024-01-11T11:21:37;26.58;;;12.88;;
44822;SDS011;51097;51.984;5.650;2024-01-11T11:24:07;25.17;;;12.10;;
44822;SDS011;51097;51.984;5.650;2024-01-11T11:26:32;34.35;;;14.55;;
44822;SDS011;51097;51.984;5.650;2024-01-11T11:28:58;29.30;;;12.23;;
44822;SDS011;51097;51.984;5.650;2024-01-11T11:31:43;33.78;;;15.70;;
44822;SDS011;51097;51.984;5.650;2024-01-11T11:34:18;31.52;;;14.90;;
44822;SDS011;51097;51.984;5.650;2024-01-11T11:36:46;25.00;;;13.40;;
44822;SDS011;51097;51.984;5.650;2024-01-11T11:39:13;31.58;;;14.68;;
44822;SDS011;51097;51.984;5.650;2024-01-11T11:41:39;31.98;;;13.10;;
44822;SDS011;51097;51.984;5.650;2024-01-11T11:44:05;35.45;;;14.50;;
44822;SDS011;51097;51.984;5.650;2024-01-11T11:46:31;30.52;;;14.60;;
44822;SDS011;51097;51.984;5.650;2024-01-11T11:48:58;30.95;;;14.93;;
44822;SDS011;51097;51.984;5.650;2024-01-11T11:51:24;29.10;;;13.27;;
44822;SDS011;51097;51.984;5.650;2024-01-11T11:53:50;31.85;;;15.25;;
44822;SDS011;51097;51.984;5.650;2024-01-11T11:56:18;38.67;;;15.38;;
44822;SDS011;51097;51.984;5.650;2024-01-11T11:58:47;29.83;;;13.48;;
44822;SDS011;51097;51.984;5.650;2024-01-11T12:01:15;27.38;;;14.05;;
44822;SDS011;51097;51.984;5.650;2024-01-11T12:03:42;31.98;;;14.20;;
44822;SDS011;51097;51.984;5.650;2024-01-11T12:06:14;33.65;;;15.23;;
44822;SDS011;51097;51.984;5.650;2024-01-11T12:08:42;34.35;;;16.08;;
44822;SDS011;51097;51.984;5.650;2024-01-11T12:11:28;33.00;;;15.52;;
44822;SDS011;51097;51.984;5.650;2024-01-11T12:13:54;32.50;;;15.38;;
44822;SDS011;51097;51.984;5.650;2024-01-11T12:16:22;37.80;;;16.65;;
44822;SDS011;51097;51.984;5.650;2024-01-11T12:18:48;27.05;;;14.23;;
44822;SDS011;51097;51.984;5.650;2024-01-11T12:21:14;31.77;;;14.50;;
44822;SDS011;51097;51.984;5.650;2024-01-11T12:23:40;31.20;;;15.30;;
44822;SDS011;51097;51.984;5.650;2024-01-11T12:26:07;30.15;;;13.52;;
44822;SDS011;51097;51.984;5.650;2024-01-11T12:28:37;32.92;;;14.55;;
44822;SDS011;51097;51.984;5.650;2024-01-11T12:31:03;33.63;;;14.73;;
44822;SDS011;51097;51.984;5.650;2024-01-11T12:33:28;32.33;;;15.20;;
44822;SDS011;51097;51.984;5.650;2024-01-11T12:35:54;32.25;;;15.00;;
44822;SDS011;51097;51.984;5.650;2024-01-11T12:38:20;31.75;;;15.27;;
44822;SDS011;51097;51.984;5.650;2024-01-11T12:40:46;32.63;;;16.35;;
44822;SDS011;51097;51.984;5.650;2024-01-11T12:43:12;31.00;;;14.93;;
44822;SDS011;51097;51.984;5.650;2024-01-11T12:45:39;34.88;;;15.23;;
44822;SDS011;51097;51.984;5.650;2024-01-11T12:48:07;32.33;;;14.57;;
44822;SDS011;51097;51.984;5.650;2024-01-11T12:50:34;33.45;;;15.15;;
44822;SDS011;51097;51.984;5.650;2024-01-11T12:53:04;30.17;;;15.63;;
44822;SDS011;51097;51.984;5.650;2024-01-11T12:55:42;30.30;;;15.80;;
44822;SDS011;51097;51.984;5.650;2024-01-11T12:58:11;34.30;;;16.15;;
44822;SDS011;51097;51.984;5.650;2024-01-11T13:00:37;26.75;;;14.88;;
44822;SDS011;51097;51.984;5.650;2024-01-11T13:03:04;32.53;;;14.57;;
44822;SDS011;51097;51.984;5.650;2024-01-11T13:05:30;29.10;;;15.02;;
44822;SDS011;51097;51.984;5.650;2024-01-11T13:08:03;31.25;;;14.32;;
44822;SDS011;51097;51.984;5.650;2024-01-11T13:10:33;32.75;;;14.98;;
44822;SDS011;51097;51.984;5.650;2024-01-11T13:13:00;34.17;;;16.58;;
44822;SDS011;51097;51.984;5.650;2024-01-11T13:15:26;29.30;;;16.65;;
44822;SDS011;51097;51.984;5.650;2024-01-11T13:17:53;31.88;;;15.63;;
44822;SDS011;51097;51.984;5.650;2024-01-11T13:20:20;30.63;;;15.80;;
44822;SDS011;51097;51.984;5.650;2024-01-11T13:22:46;36.50;;;15.40;;
44822;SDS011;51097;51.984;5.650;2024-01-11T13:25:12;25.17;;;13.40;;
44822;SDS011;51097;51.984;5.650;2024-01-11T13:27:37;28.05;;;14.32;;
44822;SDS011;51097;51.984;5.650;2024-01-11T13:30:04;32.05;;;15.52;;
44822;SDS011;51097;51.984;5.650;2024-01-11T13:32:30;24.92;;;13.05;;
44822;SDS011;51097;51.984;5.650;2024-01-11T13:34:56;29.58;;;14.48;;
44822;SDS011;51097;51.984;5.650;2024-01-11T13:37:22;30.30;;;14.43;;
44822;SDS011;51097;51.984;5.650;2024-01-11T13:39:48;28.25;;;14.48;;
44822;SDS011;51097;51.984;5.650;2024-01-11T13:42:13;25.45;;;14.60;;
44822;SDS011;51097;51.984;5.650;2024-01-11T13:44:39;29.85;;;14.38;;
44822;SDS011;51097;51.984;5.650;2024-01-11T13:47:04;27.05;;;14.15;;
44822;SDS011;51097;51.984;5.650;2024-01-11T13:49:30;25.60;;;14.52;;
44822;SDS011;51097;51.984;5.650;2024-01-11T13:51:56;29.27;;;14.43;;
44822;SDS011;51097;51.984;5.650;2024-01-11T13:54:21;29.55;;;13.80;;
44822;SDS011;51097;51.984;5.650;2024-01-11T13:56:47;29.85;;;15.05;;
44822;SDS011;51097;51.984;5.650;2024-01-11T13:59:13;28.60;;;13.82;;
44822;SDS011;51097;51.984;5.650;2024-01-11T14:01:39;27.55;;;14.00;;
44822;SDS011;51097;51.984;5.650;2024-01-11T14:04:05;27.27;;;13.35;;
44822;SDS011;51097;51.984;5.650;2024-01-11T14:06:30;26.10;;;13.50;;
44822;SDS011;51097;51.984;5.650;2024-01-11T14:08:56;25.35;;;13.90;;
44822;SDS011;51097;51.984;5.650;2024-01-11T14:11:22;29.02;;;14.23;;
44822;SDS011;51097;51.984;5.650;2024-01-11T14:13:47;26.10;;;13.85;;
44822;SDS011;51097;51.984;5.650;2024-01-11T14:16:13;29.85;;;13.52;;
44822;SDS011;51097;51.984;5.650;2024-01-11T14:18:40;27.38;;;14.00;;
44822;SDS011;51097;51.984;5.650;2024-01-11T14:21:06;27.05;;;14.95;;
44822;SDS011;51097;51.984;5.650;2024-01-11T14:23:32;24.88;;;12.63;;
44822;SDS011;51097;51.984;5.650;2024-01-11T14:25:57;31.27;;;13.15;;
44822;SDS011;51097;51.984;5.650;2024-01-11T14:28:23;24.23;;;12.25;;
44822;SDS011;51097;51.984;5.650;2024-01-11T14:30:49;28.33;;;13.93;;
44822;SDS011;51097;51.984;5.650;2024-01-11T14:33:15;24.75;;;12.43;;
44822;SDS011;51097;51.984;5.650;2024-01-11T14:35:40;27.48;;;12.95;;
44822;SDS011;51097;51.984;5.650;2024-01-11T14:38:06;24.15;;;13.23;;